createdAt,value
2018-05-02T00:00:19.131Z,0.00
2018-05-02T00:01:19.116Z,0.00
2018-05-02T00:02:19.078Z,0.00
2018-05-02T00:03:19.064Z,0.00
2018-05-02T00:04:19.028Z,0.00
2018-05-02T00:05:19.010Z,0.00
2018-05-02T00:06:18.977Z,0.00
2018-05-02T00:07:18.953Z,0.00
2018-05-02T00:08:18.924Z,0.00
2018-05-02T00:09:18.898Z,0.00
2018-05-02T00:10:18.877Z,0.00
2018-05-02T00:11:18.845Z,0.00
2018-05-02T00:12:18.815Z,0.00
2018-05-02T00:13:18.798Z,0.00
2018-05-02T00:14:18.771Z,0.00
2018-05-02T00:15:18.741Z,0.00
2018-05-02T00:16:18.714Z,0.00
2018-05-02T00:17:18.691Z,0.00
2018-05-02T00:18:18.666Z,0.00
2018-05-02T00:19:18.637Z,0.00
2018-05-02T00:20:18.609Z,0.00
2018-05-02T00:21:18.585Z,0.00
2018-05-02T00:22:18.556Z,0.00
2018-05-02T00:23:18.530Z,0.00
2018-05-02T00:24:18.498Z,0.00
2018-05-02T00:25:18.480Z,0.00
2018-05-02T00:26:18.448Z,0.00
2018-05-02T00:27:18.426Z,0.00
2018-05-02T00:28:18.404Z,0.00
2018-05-02T00:29:18.374Z,0.00
2018-05-02T00:30:18.340Z,0.00
2018-05-02T00:31:18.324Z,0.00
2018-05-02T00:32:18.287Z,0.00
2018-05-02T00:33:18.270Z,0.00
2018-05-02T00:34:18.234Z,0.00
2018-05-02T00:35:18.216Z,0.00
2018-05-02T00:36:18.187Z,0.00
2018-05-02T00:37:18.166Z,0.00
2018-05-02T00:38:18.131Z,0.00
2018-05-02T00:39:18.103Z,0.00
2018-05-02T00:40:18.084Z,0.00
2018-05-02T00:41:18.051Z,0.00
2018-05-02T00:42:18.028Z,0.00
2018-05-02T00:43:17.999Z,0.00
2018-05-02T00:44:17.976Z,0.00
2018-05-02T00:45:17.945Z,0.00
2018-05-02T00:46:17.926Z,0.00
2018-05-02T00:47:17.892Z,0.00
2018-05-02T00:48:17.874Z,0.00
2018-05-02T00:49:17.837Z,0.00
2018-05-02T00:50:17.825Z,0.00
2018-05-02T00:51:17.786Z,0.00
2018-05-02T00:52:17.771Z,0.00
2018-05-02T00:53:17.733Z,0.00
2018-05-02T00:54:17.713Z,0.00
2018-05-02T00:55:17.688Z,0.00
2018-05-02T00:56:17.652Z,0.00
2018-05-02T00:57:17.635Z,0.00
2018-05-02T00:58:17.604Z,0.00
2018-05-02T00:59:17.580Z,0.00
2018-05-02T01:00:17.549Z,0.00
2018-05-02T01:01:17.525Z,0.00
2018-05-02T01:02:17.495Z,0.00
2018-05-02T01:03:17.474Z,0.00
2018-05-02T01:04:17.444Z,0.00
2018-05-02T01:05:17.423Z,0.00
2018-05-02T01:06:17.395Z,0.00
2018-05-02T01:07:17.364Z,0.00
2018-05-02T01:08:17.342Z,0.00
2018-05-02T01:09:17.309Z,0.00
2018-05-02T01:10:17.296Z,0.00
2018-05-02T01:11:17.255Z,0.00
2018-05-02T01:12:17.239Z,0.00
2018-05-02T01:13:17.203Z,0.00
2018-05-02T01:14:17.183Z,0.00
2018-05-02T01:15:17.158Z,0.00
2018-05-02T01:16:17.125Z,0.00
2018-05-02T01:17:17.111Z,0.00
2018-05-02T01:18:17.079Z,0.00
2018-05-02T01:19:17.043Z,0.00
2018-05-02T01:20:17.019Z,0.00
2018-05-02T01:21:16.996Z,0.00
2018-05-02T01:22:16.974Z,0.00
2018-05-02T01:23:16.937Z,0.00
2018-05-02T01:24:16.937Z,0.00
2018-05-02T01:25:16.884Z,0.00
2018-05-02T01:26:16.865Z,0.00
2018-05-02T01:27:16.833Z,0.00
2018-05-02T01:28:16.811Z,0.00
2018-05-02T01:29:16.780Z,0.00
2018-05-02T01:30:16.755Z,0.00
2018-05-02T01:31:16.731Z,0.00
2018-05-02T01:32:16.705Z,0.00
2018-05-02T01:33:16.680Z,0.00
2018-05-02T01:34:16.645Z,0.00
2018-05-02T01:35:16.631Z,0.00
2018-05-02T01:36:16.595Z,0.00
2018-05-02T01:37:16.574Z,0.00
2018-05-02T01:38:16.545Z,0.00
2018-05-02T01:39:16.515Z,0.00
2018-05-02T01:40:16.492Z,0.00
2018-05-02T01:41:16.464Z,0.00
2018-05-02T01:42:16.439Z,0.00
2018-05-02T01:43:16.412Z,0.00
2018-05-02T01:44:16.384Z,0.00
2018-05-02T01:45:16.358Z,0.00
2018-05-02T01:46:16.332Z,0.00
2018-05-02T01:47:16.303Z,0.00
2018-05-02T01:48:16.284Z,0.00
2018-05-02T01:49:16.248Z,0.00
2018-05-02T01:50:16.229Z,0.00
2018-05-02T01:51:16.193Z,0.00
2018-05-02T01:52:16.177Z,0.00
2018-05-02T01:53:16.144Z,0.00
2018-05-02T01:54:16.117Z,0.00
2018-05-02T01:55:16.095Z,0.00
2018-05-02T01:56:16.071Z,0.00
2018-05-02T01:57:16.034Z,0.00
2018-05-02T01:58:16.010Z,0.00
2018-05-02T01:59:15.985Z,0.00
2018-05-02T02:00:15.956Z,0.00
2018-05-02T02:01:15.939Z,0.00
2018-05-02T02:02:15.910Z,0.00
2018-05-02T02:03:15.877Z,0.00
2018-05-02T02:04:15.859Z,0.00
2018-05-02T02:05:15.824Z,0.00
2018-05-02T02:06:15.800Z,0.00
2018-05-02T02:07:15.773Z,0.00
2018-05-02T02:08:15.749Z,0.00
2018-05-02T02:09:15.719Z,0.00
2018-05-02T02:10:15.695Z,0.00
2018-05-02T02:11:15.671Z,0.00
2018-05-02T02:12:15.645Z,0.00
2018-05-02T02:13:15.614Z,0.00
2018-05-02T02:14:15.592Z,0.00
2018-05-02T02:15:15.560Z,0.00
2018-05-02T02:16:15.540Z,0.00
2018-05-02T02:17:15.509Z,0.00
2018-05-02T02:18:15.480Z,0.00
2018-05-02T02:19:15.454Z,0.00
2018-05-02T02:20:15.430Z,0.00
2018-05-02T02:21:15.400Z,0.00
2018-05-02T02:22:15.373Z,0.00
2018-05-02T02:23:15.350Z,0.00
2018-05-02T02:24:15.327Z,0.00
2018-05-02T02:25:15.291Z,0.00
2018-05-02T02:26:15.269Z,0.00
2018-05-02T02:27:15.240Z,0.00
2018-05-02T02:28:15.221Z,0.00
2018-05-02T02:29:15.188Z,0.00
2018-05-02T02:30:15.159Z,0.00
2018-05-02T02:31:15.140Z,0.00
2018-05-02T02:32:15.112Z,0.00
2018-05-02T02:33:15.088Z,0.00
2018-05-02T02:34:15.057Z,0.00
2018-05-02T02:35:15.032Z,0.00
2018-05-02T02:36:15.008Z,0.00
2018-05-02T02:37:14.975Z,0.00
2018-05-02T02:38:14.945Z,0.00
2018-05-02T02:39:14.937Z,0.00
2018-05-02T02:40:14.899Z,0.00
2018-05-02T02:41:14.867Z,0.00
2018-05-02T02:42:14.846Z,0.00
2018-05-02T02:43:14.815Z,0.00
2018-05-02T02:44:14.793Z,0.00
2018-05-02T02:45:14.773Z,0.00
2018-05-02T02:46:14.736Z,0.00
2018-05-02T02:47:14.708Z,0.00
2018-05-02T02:48:14.684Z,0.00
2018-05-02T02:49:14.661Z,0.00
2018-05-02T02:50:14.632Z,0.00
2018-05-02T02:51:14.606Z,0.00
2018-05-02T02:52:14.583Z,0.00
2018-05-02T02:53:14.549Z,0.00
2018-05-02T02:54:14.530Z,0.00
2018-05-02T02:55:14.519Z,0.00
2018-05-02T02:56:14.476Z,0.00
2018-05-02T02:57:14.443Z,0.00
2018-05-02T02:58:14.417Z,0.00
2018-05-02T02:59:14.394Z,0.00
2018-05-02T03:00:14.370Z,0.00
2018-05-02T03:01:14.342Z,0.00
2018-05-02T03:02:14.319Z,0.00
2018-05-02T03:03:14.292Z,0.00
2018-05-02T03:04:14.255Z,0.00
2018-05-02T03:05:14.236Z,0.00
2018-05-02T03:06:14.210Z,0.00
2018-05-02T03:07:14.175Z,0.00
2018-05-02T03:08:14.155Z,0.00
2018-05-02T03:09:14.122Z,0.00
2018-05-02T03:10:14.103Z,0.00
2018-05-02T03:11:14.076Z,0.00
2018-05-02T03:12:14.048Z,0.00
2018-05-02T03:13:14.016Z,0.00
2018-05-02T03:14:13.993Z,0.00
2018-05-02T03:15:13.966Z,0.00
2018-05-02T03:16:13.938Z,0.00
2018-05-02T03:17:13.911Z,0.00
2018-05-02T03:18:13.885Z,0.00
2018-05-02T03:19:13.858Z,0.00
2018-05-02T03:20:13.851Z,0.00
2018-05-02T03:21:13.802Z,0.00
2018-05-02T03:22:13.778Z,0.00
2018-05-02T03:23:13.759Z,0.00
2018-05-02T03:24:13.731Z,0.00
2018-05-02T03:25:13.700Z,0.00
2018-05-02T03:26:13.674Z,0.00
2018-05-02T03:27:13.647Z,0.00
2018-05-02T03:28:13.625Z,0.00
2018-05-02T03:29:13.589Z,0.00
2018-05-02T03:30:13.572Z,0.00
2018-05-02T03:31:13.541Z,0.00
2018-05-02T03:32:13.515Z,0.00
2018-05-02T03:33:13.488Z,4.00
2018-05-02T03:34:13.461Z,4.00
2018-05-02T03:35:13.430Z,0.00
2018-05-02T03:36:13.403Z,4.00
2018-05-02T03:37:13.385Z,4.00
2018-05-02T03:38:13.354Z,8.00
2018-05-02T03:39:13.329Z,4.00
2018-05-02T03:40:13.305Z,8.00
2018-05-02T03:41:13.274Z,8.00
2018-05-02T03:42:13.242Z,8.00
2018-05-02T03:43:13.224Z,12.00
2018-05-02T03:44:13.195Z,12.00
2018-05-02T03:45:13.169Z,16.00
2018-05-02T03:46:13.138Z,12.00
2018-05-02T03:47:13.116Z,16.00
2018-05-02T03:48:13.084Z,20.00
2018-05-02T03:49:13.058Z,24.00
2018-05-02T03:50:13.037Z,24.00
2018-05-02T03:51:13.013Z,28.00
2018-05-02T03:52:12.986Z,32.00
2018-05-02T03:53:12.955Z,40.00
2018-05-02T03:54:12.927Z,40.00
2018-05-02T03:55:12.901Z,48.00
2018-05-02T03:56:12.876Z,52.00
2018-05-02T03:57:12.845Z,64.00
2018-05-02T03:58:12.845Z,64.00
2018-05-02T03:59:12.789Z,76.00
2018-05-02T04:00:12.773Z,84.00
2018-05-02T04:01:12.736Z,88.00
2018-05-02T04:02:12.712Z,96.00
2018-05-02T04:03:12.692Z,108.00
2018-05-02T04:04:12.659Z,120.00
2018-05-02T04:05:12.634Z,128.00
2018-05-02T04:06:12.608Z,140.00
2018-05-02T04:07:12.584Z,152.00
2018-05-02T04:08:12.557Z,164.00
2018-05-02T04:09:12.531Z,176.00
2018-05-02T04:10:12.498Z,188.00
2018-05-02T04:11:12.477Z,204.00
2018-05-02T04:12:12.444Z,216.00
2018-05-02T04:13:12.426Z,232.00
2018-05-02T04:14:12.392Z,248.00
2018-05-02T04:15:12.368Z,264.00
2018-05-02T04:16:12.339Z,280.00
2018-05-02T04:17:12.328Z,296.00
2018-05-02T04:18:12.293Z,308.00
2018-05-02T04:19:12.255Z,324.00
2018-05-02T04:20:12.238Z,344.00
2018-05-02T04:21:12.206Z,360.00
2018-05-02T04:22:12.181Z,376.00
2018-05-02T04:23:12.158Z,400.00
2018-05-02T04:24:12.124Z,416.00
2018-05-02T04:25:12.104Z,436.00
2018-05-02T04:26:12.169Z,452.00
2018-05-02T04:27:12.043Z,468.00
2018-05-02T04:28:12.025Z,488.00
2018-05-02T04:29:11.987Z,508.00
2018-05-02T04:30:11.969Z,528.00
2018-05-02T04:31:11.945Z,540.00
2018-05-02T04:32:11.914Z,564.00
2018-05-02T04:33:11.884Z,580.00
2018-05-02T04:34:11.855Z,596.00
2018-05-02T04:35:11.838Z,616.00
2018-05-02T04:36:11.808Z,632.00
2018-05-02T04:37:11.778Z,648.00
2018-05-02T04:38:11.750Z,668.00
2018-05-02T04:39:11.728Z,684.00
2018-05-02T04:40:11.700Z,700.00
2018-05-02T04:41:11.709Z,716.00
2018-05-02T04:42:11.644Z,736.00
2018-05-02T04:43:11.624Z,752.00
2018-05-02T04:44:11.590Z,768.00
2018-05-02T04:45:11.569Z,784.00
2018-05-02T04:46:11.538Z,800.00
2018-05-02T04:47:11.513Z,816.00
2018-05-02T04:48:11.485Z,828.00
2018-05-02T04:49:11.461Z,844.00
2018-05-02T04:50:11.437Z,856.00
2018-05-02T04:51:11.402Z,876.00
2018-05-02T04:52:11.385Z,888.00
2018-05-02T04:53:11.348Z,900.00
2018-05-02T04:54:11.327Z,916.00
2018-05-02T04:55:11.353Z,932.00
2018-05-02T04:56:11.273Z,944.00
2018-05-02T04:57:11.245Z,960.00
2018-05-02T04:58:11.225Z,968.00
2018-05-02T04:59:11.191Z,988.00
2018-05-02T05:00:11.164Z,996.00
2018-05-02T05:01:11.141Z,1012.00
2018-05-02T05:02:11.111Z,1024.00
2018-05-02T05:03:11.085Z,1040.00
2018-05-02T05:04:11.057Z,1052.00
2018-05-02T05:05:11.038Z,1064.00
2018-05-02T05:06:11.006Z,1076.00
2018-05-02T05:07:10.978Z,1088.00
2018-05-02T05:08:10.953Z,1100.00
2018-05-02T05:09:10.923Z,1112.00
2018-05-02T05:10:10.904Z,1120.00
2018-05-02T05:11:10.868Z,1132.00
2018-05-02T05:12:10.926Z,1140.00
2018-05-02T05:13:10.815Z,1152.00
2018-05-02T05:14:10.788Z,1164.00
2018-05-02T05:15:10.771Z,1168.00
2018-05-02T05:16:10.740Z,1184.00
2018-05-02T05:17:10.717Z,1192.00
2018-05-02T05:18:10.683Z,1200.00
2018-05-02T05:19:10.660Z,1212.00
2018-05-02T05:20:10.843Z,1220.00
2018-05-02T05:21:10.608Z,1224.00
2018-05-02T05:22:10.578Z,1236.00
2018-05-02T05:23:10.554Z,1244.00
2018-05-02T05:24:10.526Z,1252.00
2018-05-02T05:25:10.501Z,1260.00
2018-05-02T05:26:10.471Z,1272.00
2018-05-02T05:27:10.450Z,1280.00
2018-05-02T05:28:10.451Z,1288.00
2018-05-02T05:29:10.391Z,1296.00
2018-05-02T05:30:10.374Z,1300.00
2018-05-02T05:31:10.339Z,1308.00
2018-05-02T05:32:10.324Z,1316.00
2018-05-02T05:33:10.281Z,1320.00
2018-05-02T05:34:10.263Z,1328.00
2018-05-02T05:35:10.306Z,1336.00
2018-05-02T05:36:10.208Z,1344.00
2018-05-02T05:37:10.178Z,1352.00
2018-05-02T05:38:10.161Z,1360.00
2018-05-02T05:39:10.126Z,1364.00
2018-05-02T05:40:10.101Z,1372.00
2018-05-02T05:41:10.072Z,1380.00
2018-05-02T05:42:10.053Z,1380.00
2018-05-02T05:43:10.018Z,1388.00
2018-05-02T05:44:09.998Z,1396.00
2018-05-02T05:45:09.970Z,1400.00
2018-05-02T05:46:09.936Z,1404.00
2018-05-02T05:47:09.920Z,1408.00
2018-05-02T05:48:09.885Z,1412.00
2018-05-02T05:49:09.867Z,1420.00
2018-05-02T05:50:09.835Z,1424.00
2018-05-02T05:51:09.811Z,1428.00
2018-05-02T05:52:09.781Z,1432.00
2018-05-02T05:53:09.755Z,1440.00
2018-05-02T05:54:09.823Z,1444.00
2018-05-02T05:55:09.704Z,1448.00
2018-05-02T05:56:09.675Z,1456.00
2018-05-02T05:57:09.650Z,1468.00
2018-05-02T05:58:09.623Z,1476.00
2018-05-02T05:59:09.601Z,1480.00
2018-05-02T06:00:09.568Z,1488.00
2018-05-02T06:01:09.546Z,1496.00
2018-05-02T06:02:09.522Z,1500.00
2018-05-02T06:03:09.484Z,1504.00
2018-05-02T06:04:09.462Z,1508.00
2018-05-02T06:05:09.449Z,1512.00
2018-05-02T06:06:09.442Z,1516.00
2018-05-02T06:07:09.382Z,1520.00
2018-05-02T06:08:09.354Z,1528.00
2018-05-02T06:09:09.338Z,1528.00
2018-05-02T06:10:09.310Z,1536.00
2018-05-02T06:11:09.277Z,1540.00
2018-05-02T06:12:09.249Z,1548.00
2018-05-02T06:13:09.228Z,1552.00
2018-05-02T06:14:09.205Z,1556.00
2018-05-02T06:15:09.175Z,1560.00
2018-05-02T06:16:09.144Z,1572.00
2018-05-02T06:17:09.119Z,1572.00
2018-05-02T06:18:09.087Z,1580.00
2018-05-02T06:19:09.069Z,1584.00
2018-05-02T06:20:09.042Z,1592.00
2018-05-02T06:21:09.009Z,1604.00
2018-05-02T06:22:09.043Z,1616.00
2018-05-02T06:23:08.974Z,1620.00
2018-05-02T06:24:08.938Z,1632.00
2018-05-02T06:25:08.905Z,1624.00
2018-05-02T06:26:08.887Z,1628.00
2018-05-02T06:27:08.856Z,1632.00
2018-05-02T06:28:08.828Z,1640.00
2018-05-02T06:29:08.800Z,1636.00
2018-05-02T06:30:08.781Z,1632.00
2018-05-02T06:31:08.753Z,1624.00
2018-05-02T06:32:08.728Z,1628.00
2018-05-02T06:33:08.698Z,1632.00
2018-05-02T06:34:08.672Z,1636.00
2018-05-02T06:35:08.638Z,1644.00
2018-05-02T06:36:08.619Z,1652.00
2018-05-02T06:37:08.590Z,1652.00
2018-05-02T06:38:08.564Z,1656.00
2018-05-02T06:39:08.537Z,1656.00
2018-05-02T06:40:08.511Z,1656.00
2018-05-02T06:41:08.483Z,1660.00
2018-05-02T06:42:08.460Z,1664.00
2018-05-02T06:43:08.434Z,1664.00
2018-05-02T06:44:08.403Z,1676.00
2018-05-02T06:45:08.376Z,1680.00
2018-05-02T06:46:08.358Z,1684.00
2018-05-02T06:47:08.320Z,1688.00
2018-05-02T06:48:08.303Z,1692.00
2018-05-02T06:49:08.304Z,1692.00
2018-05-02T06:50:08.256Z,1696.00
2018-05-02T06:51:08.235Z,1700.00
2018-05-02T06:52:08.197Z,1708.00
2018-05-02T06:53:08.166Z,1712.00
2018-05-02T06:54:08.145Z,1712.00
2018-05-02T06:55:08.111Z,1720.00
2018-05-02T06:56:08.094Z,1724.00
2018-05-02T06:57:08.063Z,1732.00
2018-05-02T06:58:08.039Z,1736.00
2018-05-02T06:59:08.012Z,1752.00
2018-05-02T07:00:07.985Z,1792.00
2018-05-02T07:01:07.960Z,1856.00
2018-05-02T07:02:07.927Z,1892.00
2018-05-02T07:03:07.902Z,1904.00
2018-05-02T07:04:07.880Z,1916.00
2018-05-02T07:05:07.849Z,1916.00
2018-05-02T07:06:07.833Z,1916.00
2018-05-02T07:07:07.841Z,1912.00
2018-05-02T07:08:07.802Z,1920.00
2018-05-02T07:09:07.749Z,1948.00
2018-05-02T07:10:07.717Z,1944.00
2018-05-02T07:11:07.699Z,1980.00
2018-05-02T07:12:07.670Z,1968.00
2018-05-02T07:13:07.640Z,2000.00
2018-05-02T07:14:07.613Z,2012.00
2018-05-02T07:15:07.596Z,2036.00
2018-05-02T07:16:07.567Z,2080.00
2018-05-02T07:17:07.548Z,2160.00
2018-05-02T07:18:07.516Z,2284.00
2018-05-02T07:19:07.487Z,2316.00
2018-05-02T07:20:07.462Z,2284.00
2018-05-02T07:21:07.434Z,2204.00
2018-05-02T07:22:07.402Z,2252.00
2018-05-02T07:23:07.384Z,2328.00
2018-05-02T07:24:07.421Z,2276.00
2018-05-02T07:25:07.327Z,2192.00
2018-05-02T07:26:07.303Z,2084.00
2018-05-02T07:27:07.282Z,1988.00
2018-05-02T07:28:07.255Z,1960.00
2018-05-02T07:29:07.219Z,1940.00
2018-05-02T07:30:07.197Z,1892.00
2018-05-02T07:31:07.169Z,1860.00
2018-05-02T07:32:07.150Z,1832.00
2018-05-02T07:33:07.169Z,1836.00
2018-05-02T07:34:07.089Z,1840.00
2018-05-02T07:35:07.078Z,1836.00
2018-05-02T07:36:07.042Z,1836.00
2018-05-02T07:37:07.018Z,1844.00
2018-05-02T07:38:06.994Z,1848.00
2018-05-02T07:39:06.959Z,1848.00
2018-05-02T07:40:06.942Z,1852.00
2018-05-02T07:41:06.906Z,1856.00
2018-05-02T07:42:06.890Z,1864.00
2018-05-02T07:43:06.856Z,1848.00
2018-05-02T07:44:06.840Z,1848.00
2018-05-02T07:45:06.807Z,1856.00
2018-05-02T07:46:06.781Z,1860.00
2018-05-02T07:47:06.760Z,1844.00
2018-05-02T07:48:06.731Z,1836.00
2018-05-02T07:49:06.708Z,1836.00
2018-05-02T07:50:06.682Z,1840.00
2018-05-02T07:51:06.644Z,1836.00
2018-05-02T07:52:06.628Z,1844.00
2018-05-02T07:53:06.629Z,1848.00
2018-05-02T07:54:06.575Z,1852.00
2018-05-02T07:55:06.548Z,1852.00
2018-05-02T07:56:06.524Z,1852.00
2018-05-02T07:57:06.494Z,1860.00
2018-05-02T07:58:06.511Z,1860.00
2018-05-02T07:59:06.441Z,1864.00
2018-05-02T08:00:06.423Z,1860.00
2018-05-02T08:01:06.388Z,1860.00
2018-05-02T08:02:06.363Z,1856.00
2018-05-02T08:03:06.341Z,1856.00
2018-05-02T08:04:06.318Z,1860.00
2018-05-02T08:05:06.288Z,1868.00
2018-05-02T08:06:06.266Z,1864.00
2018-05-02T08:07:06.239Z,1872.00
2018-05-02T08:08:06.209Z,1884.00
2018-05-02T08:09:06.186Z,1892.00
2018-05-02T08:10:06.155Z,1896.00
2018-05-02T08:11:06.206Z,1884.00
2018-05-02T08:12:06.109Z,1876.00
2018-05-02T08:13:06.082Z,1880.00
2018-05-02T08:14:06.052Z,1908.00
2018-05-02T08:15:06.031Z,1912.00
2018-05-02T08:16:06.005Z,1924.00
2018-05-02T08:17:05.975Z,1792.00
2018-05-02T08:18:05.951Z,1860.00
2018-05-02T08:19:05.923Z,1920.00
2018-05-02T08:20:05.900Z,1928.00
2018-05-02T08:21:05.876Z,1928.00
2018-05-02T08:22:05.848Z,1928.00
2018-05-02T08:23:05.825Z,1964.00
2018-05-02T08:24:05.793Z,1968.00
2018-05-02T08:25:05.770Z,1996.00
2018-05-02T08:26:05.751Z,1996.00
2018-05-02T08:27:05.713Z,1996.00
2018-05-02T08:28:05.697Z,1996.00
2018-05-02T08:29:05.665Z,1972.00
2018-05-02T08:30:05.660Z,1976.00
2018-05-02T08:31:05.620Z,1972.00
2018-05-02T08:32:05.607Z,1996.00
2018-05-02T08:33:05.561Z,2116.00
2018-05-02T08:34:05.539Z,2028.00
2018-05-02T08:35:05.540Z,1996.00
2018-05-02T08:36:05.489Z,2052.00
2018-05-02T08:37:05.457Z,2016.00
2018-05-02T08:38:05.439Z,2100.00
2018-05-02T08:39:05.404Z,2268.00
2018-05-02T08:40:05.387Z,2640.00
2018-05-02T08:41:05.354Z,2820.00
2018-05-02T08:42:05.332Z,3104.00
2018-05-02T08:43:05.308Z,3092.00
2018-05-02T08:44:05.278Z,3164.00
2018-05-02T08:45:05.258Z,2916.00
2018-05-02T08:46:05.233Z,2676.00
2018-05-02T08:47:05.200Z,2528.00
2018-05-02T08:48:05.175Z,2232.00
2018-05-02T08:49:05.151Z,2456.00
2018-05-02T08:50:05.130Z,3676.00
2018-05-02T08:51:05.100Z,3096.00
2018-05-02T08:52:05.074Z,2728.00
2018-05-02T08:53:05.052Z,2320.00
2018-05-02T08:54:05.041Z,2232.00
2018-05-02T08:55:04.998Z,2452.00
2018-05-02T08:56:04.970Z,2984.00
2018-05-02T08:57:04.950Z,3016.00
2018-05-02T08:58:04.926Z,2984.00
2018-05-02T08:59:04.893Z,2992.00
2018-05-02T09:00:04.868Z,3120.00
2018-05-02T09:01:04.844Z,2820.00
2018-05-02T09:02:04.816Z,3060.00
2018-05-02T09:03:04.796Z,3424.00
2018-05-02T09:04:04.773Z,4096.00
2018-05-02T09:05:04.741Z,4284.00
2018-05-02T09:06:04.716Z,3672.00
2018-05-02T09:07:04.705Z,3780.00
2018-05-02T09:08:04.661Z,3996.00
2018-05-02T09:09:04.643Z,3396.00
2018-05-02T09:10:04.620Z,3428.00
2018-05-02T09:11:04.592Z,3720.00
2018-05-02T09:12:04.567Z,3944.00
2018-05-02T09:13:04.533Z,4644.00
2018-05-02T09:14:04.514Z,4220.00
2018-05-02T09:15:04.486Z,4224.00
2018-05-02T09:16:04.465Z,4576.00
2018-05-02T09:17:04.435Z,4652.00
2018-05-02T09:18:04.410Z,4676.00
2018-05-02T09:19:04.391Z,4876.00
2018-05-02T09:20:04.365Z,4724.00
2018-05-02T09:21:04.339Z,4580.00
2018-05-02T09:22:04.313Z,4452.00
2018-05-02T09:23:04.282Z,4404.00
2018-05-02T09:24:04.263Z,4544.00
2018-05-02T09:25:04.230Z,4408.00
2018-05-02T09:26:04.212Z,4180.00
2018-05-02T09:27:04.188Z,4556.00
2018-05-02T09:28:04.155Z,4776.00
2018-05-02T09:29:04.136Z,4856.00
2018-05-02T09:30:04.113Z,4568.00
2018-05-02T09:31:04.078Z,4596.00
2018-05-02T09:32:04.061Z,4576.00
2018-05-02T09:33:04.033Z,4452.00
2018-05-02T09:34:04.015Z,4336.00
2018-05-02T09:35:03.983Z,4136.00
2018-05-02T09:36:03.952Z,4296.00
2018-05-02T09:37:03.933Z,4252.00
2018-05-02T09:38:03.908Z,4532.00
2018-05-02T09:39:03.879Z,4396.00
2018-05-02T09:40:03.859Z,4768.00
2018-05-02T09:41:03.828Z,4944.00
2018-05-02T09:42:03.810Z,4612.00
2018-05-02T09:43:03.777Z,4604.00
2018-05-02T09:44:03.794Z,5088.00
2018-05-02T09:45:03.725Z,4744.00
2018-05-02T09:46:03.698Z,4700.00
2018-05-02T09:47:03.682Z,4756.00
2018-05-02T09:48:03.660Z,4948.00
2018-05-02T09:49:03.638Z,5232.00
2018-05-02T09:50:03.602Z,5424.00
2018-05-02T09:51:03.579Z,5144.00
2018-05-02T09:52:03.562Z,4948.00
2018-05-02T09:53:03.525Z,4972.00
2018-05-02T09:54:03.507Z,4644.00
2018-05-02T09:55:03.479Z,4856.00
2018-05-02T09:56:03.453Z,4888.00
2018-05-02T09:57:03.429Z,5100.00
2018-05-02T09:58:03.405Z,5288.00
2018-05-02T09:59:03.377Z,5212.00
2018-05-02T10:00:03.348Z,5008.00
2018-05-02T10:01:03.338Z,4840.00
2018-05-02T10:02:03.309Z,4900.00
2018-05-02T10:03:03.277Z,4468.00
2018-05-02T10:04:03.251Z,4320.00
2018-05-02T10:05:03.227Z,4232.00
2018-05-02T10:06:03.202Z,4232.00
2018-05-02T10:07:03.182Z,4396.00
2018-05-02T10:08:03.154Z,4376.00
2018-05-02T10:09:03.125Z,4160.00
2018-05-02T10:10:03.105Z,3760.00
2018-05-02T10:11:03.077Z,3692.00
2018-05-02T10:12:03.051Z,3560.00
2018-05-02T10:13:03.042Z,3428.00
2018-05-02T10:14:03.007Z,3620.00
2018-05-02T10:15:02.981Z,3556.00
2018-05-02T10:16:02.958Z,3296.00
2018-05-02T10:17:02.948Z,3376.00
2018-05-02T10:18:02.902Z,3380.00
2018-05-02T10:19:02.884Z,3096.00
2018-05-02T10:20:02.849Z,2792.00
2018-05-02T10:21:02.832Z,2576.00
2018-05-02T10:22:02.821Z,2552.00
2018-05-02T10:23:02.774Z,2576.00
2018-05-02T10:24:02.808Z,2608.00
2018-05-02T10:25:02.729Z,2672.00
2018-05-02T10:26:02.708Z,2756.00
2018-05-02T10:27:02.673Z,2796.00
2018-05-02T10:28:02.659Z,2780.00
2018-05-02T10:29:02.625Z,2764.00
2018-05-02T10:30:02.604Z,2716.00
2018-05-02T10:31:02.589Z,2668.00
2018-05-02T10:32:02.549Z,2612.00
2018-05-02T10:33:02.533Z,2684.00
2018-05-02T10:34:02.511Z,2684.00
2018-05-02T10:35:02.475Z,2652.00
2018-05-02T10:36:02.465Z,2684.00
2018-05-02T10:37:02.524Z,2764.00
2018-05-02T10:38:02.406Z,2800.00
2018-05-02T10:39:02.375Z,2740.00
2018-05-02T10:40:02.355Z,2756.00
2018-05-02T10:41:02.325Z,2688.00
2018-05-02T10:42:02.310Z,2684.00
2018-05-02T10:43:02.319Z,2660.00
2018-05-02T10:44:02.252Z,2604.00
2018-05-02T10:45:02.232Z,2596.00
2018-05-02T10:46:02.208Z,2580.00
2018-05-02T10:47:02.180Z,2588.00
2018-05-02T10:48:02.159Z,2624.00
2018-05-02T10:49:02.123Z,2652.00
2018-05-02T10:50:02.103Z,2684.00
2018-05-02T10:51:02.076Z,2684.00
2018-05-02T10:52:02.062Z,2656.00
2018-05-02T10:53:02.067Z,2676.00
2018-05-02T10:54:02.007Z,2696.00
2018-05-02T10:55:01.980Z,2724.00
2018-05-02T10:56:02.014Z,2736.00
2018-05-02T10:57:01.928Z,2764.00
2018-05-02T10:58:01.905Z,2752.00
2018-05-02T10:59:01.873Z,2840.00
2018-05-02T11:00:01.860Z,2640.00
2018-05-02T11:01:01.824Z,2636.00
2018-05-02T11:02:01.800Z,3016.00
2018-05-02T11:03:01.783Z,2900.00
2018-05-02T11:04:01.765Z,2916.00
2018-05-02T11:05:01.731Z,2840.00
2018-05-02T11:06:01.708Z,2840.00
2018-05-02T11:07:01.683Z,2828.00
2018-05-02T11:08:01.656Z,2868.00
2018-05-02T11:09:01.632Z,2868.00
2018-05-02T11:10:01.605Z,2908.00
2018-05-02T11:11:01.575Z,2940.00
2018-05-02T11:12:01.559Z,2992.00
2018-05-02T11:13:01.552Z,3004.00
2018-05-02T11:14:01.506Z,3040.00
2018-05-02T11:15:01.475Z,3024.00
2018-05-02T11:16:01.450Z,3008.00
2018-05-02T11:17:01.424Z,3012.00
2018-05-02T11:18:01.405Z,3012.00
2018-05-02T11:19:01.388Z,3008.00
2018-05-02T11:20:01.356Z,3024.00
2018-05-02T11:21:01.323Z,3020.00
2018-05-02T11:22:01.369Z,3032.00
2018-05-02T11:23:01.284Z,3020.00
2018-05-02T11:24:01.250Z,3084.00
2018-05-02T11:25:01.233Z,3132.00
2018-05-02T11:26:01.202Z,3208.00
2018-05-02T11:27:01.178Z,3196.00
2018-05-02T11:28:01.151Z,3232.00
2018-05-02T11:29:01.131Z,3264.00
2018-05-02T11:30:01.106Z,3264.00
2018-05-02T11:31:01.081Z,3344.00
2018-05-02T11:32:01.061Z,3488.00
2018-05-02T11:33:01.033Z,3580.00
2018-05-02T11:34:01.008Z,3648.00
2018-05-02T11:35:00.984Z,3708.00
2018-05-02T11:36:00.954Z,3656.00
2018-05-02T11:37:00.933Z,3736.00
2018-05-02T11:38:00.950Z,3904.00
2018-05-02T11:39:00.876Z,4028.00
2018-05-02T11:40:00.861Z,4300.00
2018-05-02T11:41:00.824Z,4708.00
2018-05-02T11:42:00.809Z,4560.00
2018-05-02T11:43:00.782Z,3832.00
2018-05-02T11:44:00.757Z,3612.00
2018-05-02T11:45:00.752Z,4068.00
2018-05-02T11:46:00.704Z,4108.00
2018-05-02T11:47:00.681Z,3920.00
2018-05-02T11:48:00.654Z,4052.00
2018-05-02T11:49:00.631Z,4360.00
2018-05-02T11:50:00.607Z,4800.00
2018-05-02T11:51:00.584Z,4936.00
2018-05-02T11:52:00.563Z,4768.00
2018-05-02T11:53:00.534Z,4696.00
2018-05-02T11:54:00.505Z,4504.00
2018-05-02T11:55:00.563Z,4244.00
2018-05-02T11:56:00.462Z,4420.00
2018-05-02T11:57:00.438Z,4376.00
2018-05-02T11:58:00.411Z,4388.00
2018-05-02T11:59:00.392Z,4152.00
2018-05-02T12:00:00.387Z,4296.00
2018-05-02T12:01:00.332Z,4328.00
2018-05-02T12:02:00.317Z,4252.00
2018-05-02T12:03:00.287Z,4940.00
2018-05-02T12:04:00.273Z,5124.00
2018-05-02T12:05:00.239Z,5192.00
2018-05-02T12:06:00.213Z,5468.00
2018-05-02T12:07:00.232Z,5588.00
2018-05-02T12:08:00.163Z,5652.00
2018-05-02T12:09:00.144Z,5640.00
2018-05-02T12:10:00.120Z,5652.00
2018-05-02T12:11:00.088Z,5924.00
2018-05-02T12:12:00.066Z,6268.00
2018-05-02T12:13:00.043Z,6604.00
2018-05-02T12:14:00.020Z,7016.00
2018-05-02T12:15:00.069Z,7068.00
2018-05-02T12:15:59.969Z,7360.00
2018-05-02T12:16:59.951Z,7660.00
2018-05-02T12:17:59.922Z,7876.00
2018-05-02T12:18:59.893Z,7796.00
2018-05-02T12:19:59.869Z,7760.00
2018-05-02T12:20:59.844Z,7648.00
2018-05-02T12:21:59.909Z,7440.00
2018-05-02T12:22:59.796Z,7468.00
2018-05-02T12:23:59.779Z,7468.00
2018-05-02T12:24:59.747Z,7368.00
2018-05-02T12:25:59.728Z,7120.00
2018-05-02T12:26:59.703Z,7008.00
2018-05-02T12:27:59.680Z,7328.00
2018-05-02T12:28:59.652Z,7452.00